createdAt,value
2023-01-05T00:00:00.857Z,10.9
2023-01-05T00:03:00.894Z,10.9
2023-01-05T00:06:00.804Z,10.9
2023-01-05T00:09:00.872Z,10.9
2023-01-05T00:12:00.873Z,10.4
2023-01-05T00:15:00.846Z,10.4
2023-01-05T00:18:00.835Z,10.4
2023-01-05T00:21:00.832Z,10.2
2023-01-05T00:24:00.878Z,10.2
2023-01-05T00:27:00.863Z,10.2
2023-01-05T00:30:01.189Z,10.2
2023-01-05T00:33:00.800Z,10.2
2023-01-05T00:36:00.818Z,10.2
2023-01-05T00:39:00.807Z,10
2023-01-05T00:42:00.757Z,10
2023-01-05T00:45:00.834Z,10
2023-01-05T00:48:01.078Z,10
2023-01-05T00:51:00.837Z,10
2023-01-05T00:54:00.789Z,10
2023-01-05T00:57:00.867Z,10
2023-01-05T01:00:00.878Z,10
2023-01-05T01:03:00.894Z,10
2023-01-05T01:06:00.804Z,10
2023-01-05T01:09:00.875Z,10
2023-01-05T01:12:00.786Z,10
2023-01-05T01:15:00.836Z,10
2023-01-05T01:18:00.931Z,10
2023-01-05T01:21:00.845Z,10.2
2023-01-05T01:24:00.805Z,10.2
2023-01-05T01:27:00.834Z,10.2
2023-01-05T01:30:00.887Z,10.2
2023-01-05T01:33:00.886Z,10.2
2023-01-05T01:36:00.851Z,10.1
2023-01-05T01:39:00.867Z,10.1
2023-01-05T01:42:00.845Z,10.1
2023-01-05T01:45:00.900Z,10.1
2023-01-05T01:48:00.850Z,10.1
2023-01-05T01:51:08.145Z,10
2023-01-05T01:54:00.886Z,10
2023-01-05T01:57:00.861Z,10
2023-01-05T02:00:00.864Z,10
2023-01-05T02:03:00.847Z,10
2023-01-05T02:06:00.862Z,10
2023-01-05T02:09:00.992Z,10
2023-01-05T02:12:00.805Z,10
2023-01-05T02:15:00.792Z,10
2023-01-05T02:18:00.792Z,9.9
2023-01-05T02:21:00.839Z,9.9
2023-01-05T02:24:00.828Z,9.9
2023-01-05T02:27:00.851Z,9.9
2023-01-05T02:30:00.855Z,10
2023-01-05T02:33:00.825Z,10
2023-01-05T02:36:00.839Z,10
2023-01-05T02:39:00.839Z,10
2023-01-05T02:42:00.860Z,10
2023-01-05T02:45:00.876Z,10
2023-01-05T02:48:00.871Z,10
2023-01-05T02:51:00.910Z,10.1
2023-01-05T02:54:00.857Z,10.1
2023-01-05T02:57:00.829Z,10.1
2023-01-05T03:00:00.849Z,10.1
2023-01-05T03:03:01.184Z,10.1
2023-01-05T03:06:00.879Z,10.1
2023-01-05T03:09:00.829Z,10.1
2023-01-05T03:12:00.832Z,10.1
2023-01-05T03:15:00.875Z,10.1
2023-01-05T03:18:00.864Z,10.1
2023-01-05T03:21:00.816Z,10.1
2023-01-05T03:24:00.908Z,10.1
2023-01-05T03:27:00.858Z,10.1
2023-01-05T03:30:00.882Z,10.1
2023-01-05T03:33:00.791Z,10.1
2023-01-05T03:36:00.903Z,10.1
2023-01-05T03:39:00.782Z,10.1
2023-01-05T03:42:00.963Z,10.1
2023-01-05T03:45:00.832Z,10.1
2023-01-05T03:48:00.822Z,10
2023-01-05T03:51:00.880Z,10
2023-01-05T03:54:00.852Z,10
2023-01-05T03:57:00.797Z,10
2023-01-05T04:00:00.825Z,10
2023-01-05T04:03:01.090Z,10
2023-01-05T04:06:00.772Z,10
2023-01-05T04:09:00.816Z,10
2023-01-05T04:12:00.860Z,10
2023-01-05T04:15:00.772Z,10
2023-01-05T04:18:00.806Z,10
2023-01-05T04:21:00.809Z,10
2023-01-05T04:24:00.860Z,10
2023-01-05T04:27:00.835Z,9.8
2023-01-05T04:30:00.870Z,9.8
2023-01-05T04:33:00.817Z,9.8
2023-01-05T04:36:00.825Z,9.8
2023-01-05T04:39:00.835Z,9.8
2023-01-05T04:42:00.846Z,9.8
2023-01-05T04:45:00.827Z,9.8
2023-01-05T04:48:00.884Z,9.8
2023-01-05T04:51:00.909Z,9.8
2023-01-05T04:54:00.924Z,9.8
2023-01-05T04:57:00.830Z,9.8
2023-01-05T05:00:00.995Z,9.8
2023-01-05T05:03:01.084Z,9.8
2023-01-05T05:06:00.916Z,9.8
2023-01-05T05:09:00.821Z,9.8
2023-01-05T05:12:00.897Z,9.8
2023-01-05T05:15:00.857Z,9.8
2023-01-05T05:18:09.089Z,9.8
2023-01-05T05:21:00.791Z,9.8
2023-01-05T05:24:00.806Z,9.8
2023-01-05T05:27:00.815Z,9.8
2023-01-05T05:30:00.921Z,9.8
2023-01-05T05:33:00.791Z,9.8
2023-01-05T05:36:00.904Z,9.8
2023-01-05T05:39:00.849Z,9.8
2023-01-05T05:42:00.802Z,9.8
2023-01-05T05:45:00.798Z,9.8
2023-01-05T05:48:00.967Z,9.8
2023-01-05T05:51:00.892Z,9.8
2023-01-05T05:54:00.820Z,9.7
2023-01-05T05:57:00.911Z,9.7
2023-01-05T06:00:00.966Z,9.7
2023-01-05T06:03:00.969Z,9.6
2023-01-05T06:06:00.876Z,9.6
2023-01-05T06:09:00.806Z,9.6
2023-01-05T06:12:00.819Z,9.6
2023-01-05T06:15:00.796Z,9.7
2023-01-05T06:18:00.822Z,9.7
2023-01-05T06:21:02.212Z,9.7
2023-01-05T06:24:00.903Z,9.7
2023-01-05T06:27:00.934Z,9.7
2023-01-05T06:30:00.936Z,9.7
2023-01-05T06:33:00.857Z,9.7
2023-01-05T06:36:00.821Z,9.6
2023-01-05T06:39:00.958Z,9.6
2023-01-05T06:42:00.845Z,9.6
2023-01-05T06:45:00.813Z,9.6
2023-01-05T06:48:00.873Z,9.6
2023-01-05T06:51:00.841Z,9.6
2023-01-05T06:54:00.814Z,9.6
2023-01-05T06:57:00.829Z,9.6
2023-01-05T07:00:00.947Z,9.6
2023-01-05T07:03:00.918Z,9.6
2023-01-05T07:06:00.824Z,9.6
2023-01-05T07:09:00.804Z,9.6
2023-01-05T07:12:00.793Z,9.5
2023-01-05T07:15:00.804Z,9.5
2023-01-05T07:18:00.840Z,9.5
2023-01-05T07:21:00.784Z,9.5
2023-01-05T07:24:00.771Z,9.6
2023-01-05T07:27:09.545Z,9.6
2023-01-05T07:30:00.850Z,9.6
2023-01-05T07:33:00.876Z,9.6
2023-01-05T07:36:00.854Z,9.7
2023-01-05T07:39:00.881Z,9.7
2023-01-05T07:42:00.886Z,9.7
2023-01-05T07:45:00.885Z,9.7
2023-01-05T07:48:00.833Z,9.7
2023-01-05T07:51:00.863Z,9.7
2023-01-05T07:54:00.871Z,9.7
2023-01-05T07:57:00.891Z,9.7
2023-01-05T08:00:01.038Z,9.7
2023-01-05T08:03:00.847Z,9.7
2023-01-05T08:06:00.844Z,9.7
2023-01-05T08:09:00.897Z,9.7
2023-01-05T08:12:00.900Z,9.7
2023-01-05T08:15:00.919Z,9.6
2023-01-05T08:18:00.847Z,9.6
2023-01-05T08:21:00.912Z,9.6
2023-01-05T08:24:00.862Z,9.6
2023-01-05T08:27:01.081Z,9.6
2023-01-05T08:30:00.929Z,9.7
2023-01-05T08:33:00.847Z,9.7
2023-01-05T08:36:00.900Z,9.7
2023-01-05T08:39:00.843Z,9.7
2023-01-05T08:42:03.150Z,9.7
2023-01-05T08:45:00.871Z,9.7
2023-01-05T08:48:00.845Z,9.7
2023-01-05T08:51:00.826Z,9.7
2023-01-05T08:54:00.828Z,9.7
2023-01-05T08:57:00.821Z,9.7
2023-01-05T09:00:01.027Z,9.7
2023-01-05T09:03:01.156Z,9.7
2023-01-05T09:06:00.835Z,9.7
2023-01-05T09:09:00.865Z,9.7
2023-01-05T09:12:00.859Z,9.7
2023-01-05T09:15:00.813Z,9.7
2023-01-05T09:18:00.940Z,9.7
2023-01-05T09:21:00.838Z,9.7
2023-01-05T09:24:00.804Z,9.8
2023-01-05T09:27:00.834Z,9.8
2023-01-05T09:30:00.906Z,9.8
2023-01-05T09:33:00.876Z,9.8
2023-01-05T09:36:00.841Z,9.8
2023-01-05T09:39:00.837Z,9.8
2023-01-05T09:42:00.873Z,9.8
2023-01-05T09:45:00.883Z,9.8
2023-01-05T09:48:00.930Z,9.8
2023-01-05T09:51:00.823Z,9.8
2023-01-05T09:54:00.825Z,9.8
2023-01-05T09:57:10.835Z,9.9
2023-01-05T10:00:00.962Z,9.9
2023-01-05T10:03:00.899Z,9.9
2023-01-05T10:06:00.890Z,9.9
2023-01-05T10:09:00.879Z,9.9
2023-01-05T10:12:00.893Z,9.9
2023-01-05T10:15:00.875Z,9.9
2023-01-05T10:18:00.831Z,9.9
2023-01-05T10:21:00.853Z,9.9
2023-01-05T10:24:00.878Z,9.9
2023-01-05T10:27:26.271Z,9.9
2023-01-05T10:30:00.917Z,10.1
2023-01-05T10:33:35.611Z,10.1
2023-01-05T10:36:06.340Z,10.1
2023-01-05T10:39:00.909Z,10.1
2023-01-05T10:42:00.869Z,10.1
2023-01-05T10:45:00.902Z,10.1
2023-01-05T10:48:00.876Z,10.1
2023-01-05T10:51:00.897Z,10.1
2023-01-05T10:54:00.826Z,10.1
2023-01-05T10:57:00.905Z,10.1
2023-01-05T11:00:01.066Z,10.1
2023-01-05T11:03:00.916Z,10.1
2023-01-05T11:06:00.864Z,10.1
2023-01-05T11:09:00.902Z,10.1
2023-01-05T11:12:00.843Z,10.1
2023-01-05T11:15:00.891Z,10.1
2023-01-05T11:18:00.856Z,10.1
2023-01-05T11:21:00.831Z,10.1
2023-01-05T11:24:00.808Z,10.1
2023-01-05T11:27:00.816Z,10.1
2023-01-05T11:30:00.997Z,10.1
2023-01-05T11:33:00.900Z,10.1
2023-01-05T11:36:00.833Z,10.1
2023-01-05T11:39:00.951Z,10.1
2023-01-05T11:42:00.861Z,9.9
2023-01-05T11:45:00.866Z,9.9
2023-01-05T11:48:00.840Z,9.8
2023-01-05T11:51:00.845Z,9.8
2023-01-05T11:54:00.823Z,9.8
2023-01-05T11:57:00.887Z,9.8
2023-01-05T12:00:00.914Z,9.8
2023-01-05T12:03:01.061Z,9.8
2023-01-05T12:06:00.846Z,9.8
2023-01-05T12:09:00.997Z,9.8
2023-01-05T12:12:00.874Z,9.8
2023-01-05T12:15:00.830Z,9.3
2023-01-05T12:18:00.879Z,9.3
2023-01-05T12:21:00.871Z,9.3
2023-01-05T12:24:00.837Z,9.3
2023-01-05T12:27:00.847Z,9.1
2023-01-05T12:36:00.900Z,9.1
2023-01-05T12:39:00.995Z,9.1
2023-01-05T12:42:05.283Z,8.8
2023-01-05T12:45:00.833Z,8.6
2023-01-05T12:48:00.878Z,8.6
2023-01-05T12:51:00.857Z,8.6
2023-01-05T12:54:01.785Z,8.6
2023-01-05T12:57:00.839Z,8.6
2023-01-05T13:00:00.940Z,8.6
2023-01-05T13:03:00.952Z,8.6
2023-01-05T13:06:00.831Z,8.4
2023-01-05T13:09:00.890Z,8.4
2023-01-05T13:12:00.810Z,8.4
2023-01-05T13:15:00.865Z,8.4
2023-01-05T13:18:00.856Z,8.4
2023-01-05T13:21:00.830Z,8.4
2023-01-05T13:24:00.896Z,8.4
2023-01-05T13:27:00.887Z,8.4
2023-01-05T13:30:00.883Z,8.4
2023-01-05T13:33:00.848Z,8.4
2023-01-05T13:36:00.826Z,8.4
2023-01-05T13:39:00.886Z,8.3
2023-01-05T13:42:00.878Z,8.3
2023-01-05T13:45:00.815Z,8.3
2023-01-05T13:48:04.216Z,8.3
2023-01-05T13:51:00.836Z,8.3
2023-01-05T13:54:00.884Z,8.3
2023-01-05T13:57:00.857Z,8.3
2023-01-05T14:00:09.471Z,8.3
2023-01-05T14:03:00.828Z,8.3
2023-01-05T14:06:00.895Z,8.3
2023-01-05T14:09:00.856Z,8.4
2023-01-05T14:12:01.044Z,8.4
2023-01-05T14:15:01.307Z,8.4
2023-01-05T14:18:00.856Z,8.4
2023-01-05T14:21:00.931Z,8.4
2023-01-05T14:24:00.834Z,8.4
2023-01-05T14:27:00.828Z,8.4
2023-01-05T14:30:00.874Z,8.4
2023-01-05T14:33:00.840Z,8.4
2023-01-05T14:36:00.919Z,8.4
2023-01-05T14:39:00.839Z,8.4
2023-01-05T14:42:00.884Z,8.4
2023-01-05T14:45:00.873Z,8.4
2023-01-05T14:48:00.961Z,8.4
2023-01-05T14:51:00.793Z,8.4
2023-01-05T14:54:00.858Z,8.4
2023-01-05T14:57:03.208Z,8.4
2023-01-05T15:00:00.895Z,8.4
2023-01-05T15:03:00.909Z,8.4
2023-01-05T15:06:00.856Z,8.4
2023-01-05T15:09:00.869Z,8.4
2023-01-05T15:12:01.482Z,8.4
2023-01-05T15:15:00.844Z,8.4
2023-01-05T15:18:00.921Z,8.4
2023-01-05T15:21:00.893Z,8.4
2023-01-05T15:24:00.870Z,8.4
2023-01-05T15:27:00.785Z,8.3
2023-01-05T15:30:00.890Z,8.3
2023-01-05T15:33:00.825Z,8.3
2023-01-05T15:36:00.864Z,8.3
2023-01-05T15:39:00.845Z,8.3
2023-01-05T15:42:00.926Z,8.3
2023-01-05T15:45:00.846Z,8.3
2023-01-05T15:48:00.822Z,8.3
2023-01-05T15:51:00.839Z,8.3
2023-01-05T15:54:01.007Z,8.3
2023-01-05T15:57:00.893Z,8.3
2023-01-05T16:00:00.875Z,8.3
2023-01-05T16:03:00.835Z,8.3
2023-01-05T16:06:00.859Z,8.3
2023-01-05T16:09:00.806Z,8.3
2023-01-05T16:12:00.867Z,8.2
2023-01-05T16:15:00.819Z,8.2
2023-01-05T16:18:00.863Z,8.2
2023-01-05T16:21:00.841Z,8.2
2023-01-05T16:24:00.802Z,8.2
2023-01-05T16:27:00.848Z,8.2
2023-01-05T16:30:00.855Z,8.2
2023-01-05T16:33:00.821Z,8.2
2023-01-05T16:36:00.835Z,8.2
2023-01-05T16:39:00.846Z,8.2
2023-01-05T16:42:00.849Z,8.2
2023-01-05T16:45:00.803Z,8.2
2023-01-05T16:48:00.877Z,8.2
2023-01-05T16:51:00.812Z,8.2
2023-01-05T16:54:00.828Z,8.2
2023-01-05T16:57:00.796Z,8.2
2023-01-05T17:00:00.961Z,8.1
2023-01-05T17:03:00.904Z,8.1
2023-01-05T17:06:00.814Z,8.1
2023-01-05T17:09:00.847Z,8.1
2023-01-05T17:12:00.866Z,8.1
2023-01-05T17:15:00.846Z,8.1
2023-01-05T17:18:00.851Z,8.2
2023-01-05T17:21:00.781Z,8.2
2023-01-05T17:24:00.869Z,8.2
2023-01-05T17:27:00.824Z,8.2
2023-01-05T17:30:00.935Z,8.2
2023-01-05T17:33:00.832Z,8.2
2023-01-05T17:36:00.857Z,8.2
2023-01-05T17:39:00.850Z,8.2
2023-01-05T17:42:00.820Z,8.2
2023-01-05T17:45:00.900Z,8.2
2023-01-05T17:48:00.771Z,8.2
2023-01-05T17:51:00.778Z,8.2
2023-01-05T17:54:00.861Z,8.2
2023-01-05T17:57:00.819Z,8.2
2023-01-05T18:00:00.868Z,8.2
2023-01-05T18:03:00.822Z,8.2
2023-01-05T18:06:00.943Z,8.2
2023-01-05T18:09:00.850Z,8.2
2023-01-05T18:12:00.862Z,8.2
2023-01-05T18:15:00.772Z,8.2
2023-01-05T18:18:00.903Z,8.2
2023-01-05T18:21:00.843Z,8.2
2023-01-05T18:24:00.840Z,8.2
2023-01-05T18:27:00.801Z,8.2
2023-01-05T18:30:00.920Z,8.2
2023-01-05T18:33:00.835Z,8.2
2023-01-05T18:36:00.833Z,8.2
2023-01-05T18:39:00.851Z,8.2
2023-01-05T18:42:00.806Z,8.2
2023-01-05T18:45:14.094Z,8.2
2023-01-05T18:48:00.802Z,8.2
2023-01-05T18:51:00.849Z,8.2
2023-01-05T18:54:00.831Z,8.2
2023-01-05T18:57:00.796Z,8.2
2023-01-05T19:00:00.828Z,8.2
2023-01-05T19:03:00.847Z,8.1
2023-01-05T19:06:00.814Z,8.1
2023-01-05T19:09:00.844Z,8.1
2023-01-05T19:12:00.849Z,8.1
2023-01-05T19:15:00.888Z,8.1
2023-01-05T19:18:00.973Z,8.1
2023-01-05T19:21:00.793Z,8.1
2023-01-05T19:24:00.814Z,8.1
2023-01-05T19:27:00.793Z,8.1
2023-01-05T19:30:00.813Z,8.1
2023-01-05T19:33:00.866Z,8.1
2023-01-05T19:36:00.821Z,8.1
2023-01-05T19:39:00.821Z,8.1
2023-01-05T19:42:00.851Z,8.1
2023-01-05T19:45:00.808Z,8.1
2023-01-05T19:48:00.834Z,8.1
2023-01-05T19:51:00.770Z,8.1
2023-01-05T19:54:00.823Z,8.1
2023-01-05T19:57:00.834Z,8.1
2023-01-05T20:00:00.914Z,8.1
2023-01-05T20:03:01.019Z,8.1
2023-01-05T20:06:00.835Z,8.2
2023-01-05T20:09:00.876Z,8.2
2023-01-05T20:12:15.097Z,8.2
2023-01-05T20:15:00.817Z,8.2
2023-01-05T20:18:00.841Z,8.2
2023-01-05T20:21:00.815Z,8.2
2023-01-05T20:24:00.848Z,8.2
2023-01-05T20:27:00.806Z,8.2
2023-01-05T20:30:00.827Z,8.2
2023-01-05T20:33:00.829Z,8.2
2023-01-05T20:36:00.845Z,8.2
2023-01-05T20:39:00.824Z,8.2
2023-01-05T20:42:00.792Z,8.2
2023-01-05T20:45:00.832Z,8.2
2023-01-05T20:48:00.787Z,8.2
2023-01-05T20:51:00.890Z,8.2
2023-01-05T20:54:00.839Z,8.2
2023-01-05T20:57:00.821Z,8.2
2023-01-05T21:00:00.861Z,8.2
2023-01-05T21:03:00.931Z,8.1
2023-01-05T21:06:00.805Z,8.1
2023-01-05T21:09:00.919Z,8.1
2023-01-05T21:12:00.797Z,8.1
2023-01-05T21:15:00.906Z,8.1
2023-01-05T21:18:00.830Z,8.1
2023-01-05T21:21:00.866Z,8.1
2023-01-05T21:24:00.823Z,8.1
2023-01-05T21:27:00.828Z,8.1
2023-01-05T21:30:00.867Z,8.1
2023-01-05T21:33:00.791Z,8.1
2023-01-05T21:36:01.005Z,8.1
2023-01-05T21:39:04.009Z,8.1
2023-01-05T21:42:01.128Z,8.1
2023-01-05T21:45:00.994Z,8.1
2023-01-05T21:48:00.795Z,8.1
2023-01-05T21:51:00.800Z,8.1
2023-01-05T21:54:00.811Z,8.1
2023-01-05T21:57:00.839Z,8.1
2023-01-05T22:00:00.877Z,8.1
2023-01-05T22:03:00.894Z,8.1
2023-01-05T22:06:00.866Z,8.1
2023-01-05T22:09:00.814Z,8.2
2023-01-05T22:12:00.853Z,8.2
2023-01-05T22:15:00.902Z,8.2
2023-01-05T22:18:00.846Z,8.2
2023-01-05T22:21:00.845Z,8.2
2023-01-05T22:24:00.889Z,8.2
2023-01-05T22:27:00.845Z,8.2
2023-01-05T22:30:00.846Z,8.2
2023-01-05T22:33:00.843Z,8.2
2023-01-05T22:36:00.796Z,8.2
2023-01-05T22:39:00.892Z,8.2
2023-01-05T22:42:00.822Z,8.2
2023-01-05T22:45:00.845Z,8.2
2023-01-05T22:48:00.841Z,8.2
2023-01-05T22:51:01.510Z,8.2
2023-01-05T22:54:00.838Z,8.2
2023-01-05T22:57:00.867Z,8.2
2023-01-05T23:00:01.429Z,8.4
2023-01-05T23:03:00.863Z,8.4
2023-01-05T23:06:00.839Z,8.4
2023-01-05T23:09:00.905Z,8.4
2023-01-05T23:12:00.812Z,8.4
2023-01-05T23:15:00.855Z,8.4
2023-01-05T23:18:00.839Z,8.5
2023-01-05T23:21:00.871Z,8.5
2023-01-05T23:24:00.806Z,8.5
2023-01-05T23:27:00.843Z,8.5
2023-01-05T23:30:00.843Z,8.5
2023-01-05T23:33:00.799Z,8.5
2023-01-05T23:36:00.812Z,8.5
2023-01-05T23:39:00.821Z,8.5
2023-01-05T23:42:00.832Z,8.5
2023-01-05T23:45:00.795Z,8.4
2023-01-05T23:48:00.839Z,8.4
2023-01-05T23:51:00.793Z,8.4
2023-01-05T23:54:00.857Z,8.5
2023-01-05T23:57:00.844Z,8.5
